sensor_id;sensor_type;location;lat;lon;timestamp;pressure;altitude;pressure_sealevel;temperature;humidity
13581;BME280;6861;46.170;7.222;2023-04-25T00:01:49;95535.22;;;12.69;42.37
13581;BME280;6861;46.170;7.222;2023-04-25T00:04:19;95532.69;;;12.64;42.47
13581;BME280;6861;46.170;7.222;2023-04-25T00:06:48;95525.47;;;12.56;43.56
13581;BME280;6861;46.170;7.222;2023-04-25T00:09:17;95525.47;;;12.56;43.62
13581;BME280;6861;46.170;7.222;2023-04-25T00:11:45;95523.91;;;12.55;43.67
13581;BME280;6861;46.170;7.222;2023-04-25T00:14:14;95522.16;;;12.50;43.25
13581;BME280;6861;46.170;7.222;2023-04-25T00:16:43;95518.81;;;12.44;43.27
13581;BME280;6861;46.170;7.222;2023-04-25T00:19:11;95515.22;;;12.40;44.35
13581;BME280;6861;46.170;7.222;2023-04-25T00:21:40;95516.56;;;12.38;43.99
13581;BME280;6861;46.170;7.222;2023-04-25T00:24:08;95518.22;;;12.34;44.00
13581;BME280;6861;46.170;7.222;2023-04-25T00:26:36;95513.03;;;12.29;43.30
13581;BME280;6861;46.170;7.222;2023-04-25T00:29:04;95525.00;;;12.35;44.36
13581;BME280;6861;46.170;7.222;2023-04-25T00:31:34;95517.63;;;12.37;44.03
13581;BME280;6861;46.170;7.222;2023-04-25T00:34:02;95520.97;;;12.42;43.98
13581;BME280;6861;46.170;7.222;2023-04-25T00:36:30;95510.47;;;12.42;43.50
13581;BME280;6861;46.170;7.222;2023-04-25T00:38:58;95517.69;;;12.51;43.05
13581;BME280;6861;46.170;7.222;2023-04-25T00:41:27;95516.63;;;12.52;43.11
13581;BME280;6861;46.170;7.222;2023-04-25T00:43:56;95511.66;;;12.50;43.95
13581;BME280;6861;46.170;7.222;2023-04-25T00:46:25;95503.09;;;12.44;43.89
13581;BME280;6861;46.170;7.222;2023-04-25T00:48:55;95497.63;;;12.41;44.07
13581;BME280;6861;46.170;7.222;2023-04-25T00:51:24;95492.66;;;12.39;43.94
13581;BME280;6861;46.170;7.222;2023-04-25T00:53:53;95500.34;;;12.36;44.26
13581;BME280;6861;46.170;7.222;2023-04-25T00:56:21;95500.13;;;12.32;44.08
13581;BME280;6861;46.170;7.222;2023-04-25T00:58:50;95492.81;;;12.29;43.86
13581;BME280;6861;46.170;7.222;2023-04-25T01:01:21;95487.50;;;12.34;43.56
13581;BME280;6861;46.170;7.222;2023-04-25T01:03:49;95484.22;;;12.42;44.03
13581;BME280;6861;46.170;7.222;2023-04-25T01:06:20;95477.81;;;12.48;43.22
13581;BME280;6861;46.170;7.222;2023-04-25T01:08:49;95473.06;;;12.51;44.35
13581;BME280;6861;46.170;7.222;2023-04-25T01:11:17;95462.00;;;12.54;44.17
13581;BME280;6861;46.170;7.222;2023-04-25T01:13:46;95445.47;;;12.53;43.05
13581;BME280;6861;46.170;7.222;2023-04-25T01:16:14;95451.91;;;12.61;43.75
13581;BME280;6861;46.170;7.222;2023-04-25T01:18:43;95454.53;;;12.61;43.11
13581;BME280;6861;46.170;7.222;2023-04-25T01:21:13;95431.00;;;12.56;43.70
13581;BME280;6861;46.170;7.222;2023-04-25T01:23:42;95437.59;;;12.53;43.90
13581;BME280;6861;46.170;7.222;2023-04-25T01:26:11;95423.69;;;12.53;44.39
13581;BME280;6861;46.170;7.222;2023-04-25T01:28:40;95420.31;;;12.52;44.41
13581;BME280;6861;46.170;7.222;2023-04-25T01:31:08;95407.44;;;12.37;44.85
13581;BME280;6861;46.170;7.222;2023-04-25T01:33:37;95421.84;;;12.39;43.85
13581;BME280;6861;46.170;7.222;2023-04-25T01:36:06;95418.72;;;12.37;44.74
13581;BME280;6861;46.170;7.222;2023-04-25T01:38:35;95425.31;;;12.35;45.20
13581;BME280;6861;46.170;7.222;2023-04-25T01:41:05;95423.63;;;12.25;45.31
13581;BME280;6861;46.170;7.222;2023-04-25T01:43:33;95425.66;;;12.14;45.10
13581;BME280;6861;46.170;7.222;2023-04-25T01:46:02;95418.69;;;12.10;45.63
13581;BME280;6861;46.170;7.222;2023-04-25T01:48:30;95416.63;;;12.07;44.74
13581;BME280;6861;46.170;7.222;2023-04-25T01:50:58;95399.13;;;12.02;45.50
13581;BME280;6861;46.170;7.222;2023-04-25T01:53:26;95403.09;;;12.00;45.04
13581;BME280;6861;46.170;7.222;2023-04-25T01:55:56;95401.13;;;11.92;45.43
13581;BME280;6861;46.170;7.222;2023-04-25T01:58:24;95402.78;;;11.88;45.83
13581;BME280;6861;46.170;7.222;2023-04-25T02:00:53;95399.66;;;11.86;45.26
13581;BME280;6861;46.170;7.222;2023-04-25T02:03:21;95397.03;;;11.86;45.61
13581;BME280;6861;46.170;7.222;2023-04-25T02:05:49;95397.53;;;11.88;44.99
13581;BME280;6861;46.170;7.222;2023-04-25T02:08:17;95396.66;;;11.92;44.78
13581;BME280;6861;46.170;7.222;2023-04-25T02:10:45;95402.13;;;11.96;44.79
13581;BME280;6861;46.170;7.222;2023-04-25T02:13:15;95395.25;;;12.00;44.12
13581;BME280;6861;46.170;7.222;2023-04-25T02:15:43;95391.56;;;12.01;44.36
13581;BME280;6861;46.170;7.222;2023-04-25T02:18:11;95389.91;;;12.05;45.10
13581;BME280;6861;46.170;7.222;2023-04-25T02:20:39;95393.59;;;12.04;44.66
13581;BME280;6861;46.170;7.222;2023-04-25T02:23:07;95388.34;;;12.04;44.84
13581;BME280;6861;46.170;7.222;2023-04-25T02:25:36;95378.84;;;12.08;44.42
13581;BME280;6861;46.170;7.222;2023-04-25T02:28:04;95373.41;;;12.18;44.11
13581;BME280;6861;46.170;7.222;2023-04-25T02:30:33;95380.31;;;12.28;43.71
13581;BME280;6861;46.170;7.222;2023-04-25T02:33:02;95378.28;;;12.38;43.38
13581;BME280;6861;46.170;7.222;2023-04-25T02:35:30;95371.88;;;12.44;44.31
13581;BME280;6861;46.170;7.222;2023-04-25T02:37:58;95377.44;;;12.57;43.55
13581;BME280;6861;46.170;7.222;2023-04-25T02:40:26;95386.78;;;12.63;43.41
13581;BME280;6861;46.170;7.222;2023-04-25T02:42:54;95388.72;;;12.71;43.76
13581;BME280;6861;46.170;7.222;2023-04-25T02:45:22;95382.41;;;12.72;43.24
13581;BME280;6861;46.170;7.222;2023-04-25T02:47:52;95384.94;;;12.77;43.26
13581;BME280;6861;46.170;7.222;2023-04-25T02:50:20;95396.78;;;12.88;43.35
13581;BME280;6861;46.170;7.222;2023-04-25T02:52:48;95400.69;;;12.91;43.42
13581;BME280;6861;46.170;7.222;2023-04-25T02:55:17;95399.91;;;12.90;44.15
13581;BME280;6861;46.170;7.222;2023-04-25T02:57:45;95398.06;;;12.91;43.59
13581;BME280;6861;46.170;7.222;2023-04-25T03:00:14;95401.47;;;12.91;43.88
13581;BME280;6861;46.170;7.222;2023-04-25T03:02:42;95392.53;;;12.92;44.33
13581;BME280;6861;46.170;7.222;2023-04-25T03:05:11;95390.19;;;12.91;44.06
13581;BME280;6861;46.170;7.222;2023-04-25T03:07:40;95399.13;;;12.90;44.36
13581;BME280;6861;46.170;7.222;2023-04-25T03:10:10;95400.88;;;12.94;43.63
13581;BME280;6861;46.170;7.222;2023-04-25T03:12:38;95406.63;;;12.96;43.90
13581;BME280;6861;46.170;7.222;2023-04-25T03:15:07;95404.78;;;12.97;43.40
13581;BME280;6861;46.170;7.222;2023-04-25T03:17:35;95398.44;;;12.98;44.35
13581;BME280;6861;46.170;7.222;2023-04-25T03:20:04;95409.44;;;13.00;43.84
13581;BME280;6861;46.170;7.222;2023-04-25T03:22:36;95402.91;;;12.97;44.06
13581;BME280;6861;46.170;7.222;2023-04-25T03:25:05;95400.88;;;12.94;44.53
13581;BME280;6861;46.170;7.222;2023-04-25T03:27:33;95402.06;;;12.88;45.03
13581;BME280;6861;46.170;7.222;2023-04-25T03:30:02;95415.28;;;12.83;46.12
13581;BME280;6861;46.170;7.222;2023-04-25T03:32:30;95411.47;;;12.75;45.33
13581;BME280;6861;46.170;7.222;2023-04-25T03:34:58;95390.38;;;12.67;46.09
13581;BME280;6861;46.170;7.222;2023-04-25T03:37:26;95407.28;;;12.61;46.55
13581;BME280;6861;46.170;7.222;2023-04-25T03:39:56;95390.06;;;12.55;47.74
13581;BME280;6861;46.170;7.222;2023-04-25T03:42:24;95391.91;;;12.40;48.26
13581;BME280;6861;46.170;7.222;2023-04-25T03:44:52;95399.66;;;12.32;48.20
13581;BME280;6861;46.170;7.222;2023-04-25T03:47:20;95388.97;;;12.28;48.37
13581;BME280;6861;46.170;7.222;2023-04-25T03:49:49;95388.00;;;12.24;48.53
13581;BME280;6861;46.170;7.222;2023-04-25T03:52:18;95380.78;;;12.16;49.72
13581;BME280;6861;46.170;7.222;2023-04-25T03:54:46;95395.34;;;12.08;50.19
13581;BME280;6861;46.170;7.222;2023-04-25T03:57:16;95393.41;;;12.00;49.79
13581;BME280;6861;46.170;7.222;2023-04-25T03:59:44;95396.09;;;11.95;50.48
13581;BME280;6861;46.170;7.222;2023-04-25T04:02:12;95401.13;;;11.92;50.80
13581;BME280;6861;46.170;7.222;2023-04-25T04:04:40;95400.72;;;11.85;50.63
13581;BME280;6861;46.170;7.222;2023-04-25T04:07:11;95402.84;;;11.82;51.45
13581;BME280;6861;46.170;7.222;2023-04-25T04:09:39;95396.63;;;11.78;51.00
13581;BME280;6861;46.170;7.222;2023-04-25T04:12:07;95407.38;;;11.77;50.85
13581;BME280;6861;46.170;7.222;2023-04-25T04:14:36;95404.53;;;11.73;51.99
13581;BME280;6861;46.170;7.222;2023-04-25T04:17:05;95402.97;;;11.72;51.67
13581;BME280;6861;46.170;7.222;2023-04-25T04:19:33;95400.41;;;11.67;52.21
13581;BME280;6861;46.170;7.222;2023-04-25T04:22:02;95400.78;;;11.61;52.75
13581;BME280;6861;46.170;7.222;2023-04-25T04:24:30;95403.75;;;11.54;53.65
13581;BME280;6861;46.170;7.222;2023-04-25T04:26:58;95416.44;;;11.47;53.41
13581;BME280;6861;46.170;7.222;2023-04-25T04:29:26;95427.47;;;11.44;54.18
13581;BME280;6861;46.170;7.222;2023-04-25T04:31:56;95431.72;;;11.40;54.56
13581;BME280;6861;46.170;7.222;2023-04-25T04:34:24;95431.84;;;11.30;54.83
13581;BME280;6861;46.170;7.222;2023-04-25T04:36:53;95437.19;;;11.25;55.04
13581;BME280;6861;46.170;7.222;2023-04-25T04:39:21;95441.69;;;11.19;54.94
13581;BME280;6861;46.170;7.222;2023-04-25T04:41:50;95441.47;;;11.15;55.67
13581;BME280;6861;46.170;7.222;2023-04-25T04:44:18;95435.25;;;11.11;55.67
13581;BME280;6861;46.170;7.222;2023-04-25T04:46:46;95429.00;;;11.07;55.70
13581;BME280;6861;46.170;7.222;2023-04-25T04:49:16;95443.66;;;11.08;55.13
13581;BME280;6861;46.170;7.222;2023-04-25T04:51:44;95450.44;;;11.09;55.26
13581;BME280;6861;46.170;7.222;2023-04-25T04:54:13;95454.91;;;11.09;55.44
13581;BME280;6861;46.170;7.222;2023-04-25T04:56:41;95456.75;;;11.08;55.53
13581;BME280;6861;46.170;7.222;2023-04-25T04:59:10;95463.53;;;11.09;55.71
13581;BME280;6861;46.170;7.222;2023-04-25T05:01:38;95469.34;;;11.06;55.76
13581;BME280;6861;46.170;7.222;2023-04-25T05:04:06;95474.13;;;10.99;55.59
13581;BME280;6861;46.170;7.222;2023-04-25T05:06:36;95475.56;;;10.87;56.26
13581;BME280;6861;46.170;7.222;2023-04-25T05:09:04;95474.06;;;10.80;56.59
13581;BME280;6861;46.170;7.222;2023-04-25T05:11:32;95482.69;;;10.81;56.63
13581;BME280;6861;46.170;7.222;2023-04-25T05:14:01;95485.81;;;10.83;56.38
13581;BME280;6861;46.170;7.222;2023-04-25T05:16:29;95484.47;;;10.86;56.39
13581;BME280;6861;46.170;7.222;2023-04-25T05:18:57;95491.28;;;10.87;56.50
13581;BME280;6861;46.170;7.222;2023-04-25T05:21:25;95490.50;;;10.86;56.29
13581;BME280;6861;46.170;7.222;2023-04-25T05:23:55;95490.81;;;10.79;56.86
13581;BME280;6861;46.170;7.222;2023-04-25T05:26:23;95502.13;;;10.75;57.36
13581;BME280;6861;46.170;7.222;2023-04-25T05:28:51;95505.06;;;10.68;57.44
13581;BME280;6861;46.170;7.222;2023-04-25T05:31:19;95499.13;;;10.58;57.95
13581;BME280;6861;46.170;7.222;2023-04-25T05:33:47;95503.72;;;10.42;58.34
13581;BME280;6861;46.170;7.222;2023-04-25T05:36:16;95502.53;;;10.29;58.69
13581;BME280;6861;46.170;7.222;2023-04-25T05:38:44;95508.34;;;10.16;59.07
13581;BME280;6861;46.170;7.222;2023-04-25T05:41:14;95513.84;;;10.20;58.97
13581;BME280;6861;46.170;7.222;2023-04-25T05:43:42;95506.75;;;10.25;58.81
13581;BME280;6861;46.170;7.222;2023-04-25T05:46:14;95510.41;;;10.24;59.26
13581;BME280;6861;46.170;7.222;2023-04-25T05:48:42;95512.81;;;10.15;59.42
13581;BME280;6861;46.170;7.222;2023-04-25T05:51:11;95514.91;;;10.13;59.61
13581;BME280;6861;46.170;7.222;2023-04-25T05:53:39;95508.97;;;10.03;60.25
13581;BME280;6861;46.170;7.222;2023-04-25T05:56:07;95516.59;;;9.94;60.41
13581;BME280;6861;46.170;7.222;2023-04-25T05:58:37;95513.47;;;9.92;60.21
13581;BME280;6861;46.170;7.222;2023-04-25T06:01:05;95515.78;;;9.99;60.01
13581;BME280;6861;46.170;7.222;2023-04-25T06:03:33;95523.31;;;10.05;59.86
13581;BME280;6861;46.170;7.222;2023-04-25T06:06:02;95530.34;;;10.10;59.52
13581;BME280;6861;46.170;7.222;2023-04-25T06:08:31;95532.41;;;10.18;59.75
13581;BME280;6861;46.170;7.222;2023-04-25T06:11:00;95528.22;;;10.22;59.50
13581;BME280;6861;46.170;7.222;2023-04-25T06:13:28;95522.69;;;10.29;59.47
13581;BME280;6861;46.170;7.222;2023-04-25T06:15:58;95525.56;;;10.27;59.70
13581;BME280;6861;46.170;7.222;2023-04-25T06:18:26;95521.94;;;10.23;59.93
13581;BME280;6861;46.170;7.222;2023-04-25T06:20:54;95518.03;;;10.15;59.85
13581;BME280;6861;46.170;7.222;2023-04-25T06:23:22;95535.03;;;10.13;59.80
13581;BME280;6861;46.170;7.222;2023-04-25T06:25:50;95535.81;;;10.13;59.51
13581;BME280;6861;46.170;7.222;2023-04-25T06:28:19;95525.09;;;10.20;59.51
13581;BME280;6861;46.170;7.222;2023-04-25T06:30:48;95518.97;;;10.35;59.11
13581;BME280;6861;46.170;7.222;2023-04-25T06:33:18;95516.25;;;10.45;58.89
13581;BME280;6861;46.170;7.222;2023-04-25T06:35:46;95518.03;;;10.49;58.69
13581;BME280;6861;46.170;7.222;2023-04-25T06:38:15;95524.25;;;10.59;58.98
13581;BME280;6861;46.170;7.222;2023-04-25T06:40:43;95526.22;;;10.72;58.57
13581;BME280;6861;46.170;7.222;2023-04-25T06:43:11;95524.94;;;10.98;58.34
13581;BME280;6861;46.170;7.222;2023-04-25T06:45:39;95529.25;;;11.32;58.01
13581;BME280;6861;46.170;7.222;2023-04-25T06:48:09;95525.13;;;11.49;57.06
13581;BME280;6861;46.170;7.222;2023-04-25T06:50:39;95512.19;;;11.58;57.12
13581;BME280;6861;46.170;7.222;2023-04-25T06:53:07;95515.97;;;11.47;56.78
13581;BME280;6861;46.170;7.222;2023-04-25T06:55:35;95521.78;;;11.44;56.84
13581;BME280;6861;46.170;7.222;2023-04-25T06:58:03;95521.44;;;11.50;57.41
13581;BME280;6861;46.170;7.222;2023-04-25T07:00:32;95510.78;;;11.66;56.54
13581;BME280;6861;46.170;7.222;2023-04-25T07:03:00;95498.06;;;11.97;56.64
13581;BME280;6861;46.170;7.222;2023-04-25T07:05:29;95500.53;;;12.39;56.29
13581;BME280;6861;46.170;7.222;2023-04-25T07:07:59;95490.25;;;12.89;55.42
13581;BME280;6861;46.170;7.222;2023-04-25T07:10:27;95492.31;;;13.20;53.88
13581;BME280;6861;46.170;7.222;2023-04-25T07:12:55;95501.66;;;13.26;54.10
13581;BME280;6861;46.170;7.222;2023-04-25T07:15:24;95494.47;;;13.31;53.73
13581;BME280;6861;46.170;7.222;2023-04-25T07:17:52;95488.41;;;13.58;54.26
13581;BME280;6861;46.170;7.222;2023-04-25T07:20:20;95496.09;;;13.91;53.21
13581;BME280;6861;46.170;7.222;2023-04-25T07:22:48;95494.56;;;14.48;51.98
13581;BME280;6861;46.170;7.222;2023-04-25T07:25:19;95488.84;;;15.91;50.41
13581;BME280;6861;46.170;7.222;2023-04-25T07:27:47;95490.19;;;16.66;48.48
13581;BME280;6861;46.170;7.222;2023-04-25T07:30:15;95472.69;;;16.44;48.34
13581;BME280;6861;46.170;7.222;2023-04-25T07:32:43;95477.19;;;16.00;48.18
13581;BME280;6861;46.170;7.222;2023-04-25T07:35:12;95478.94;;;15.31;48.73
13581;BME280;6861;46.170;7.222;2023-04-25T07:37:40;95482.25;;;14.66;49.82
13581;BME280;6861;46.170;7.222;2023-04-25T07:40:09;95476.66;;;14.98;49.87
13581;BME280;6861;46.170;7.222;2023-04-25T07:42:39;95488.41;;;15.32;48.99
13581;BME280;6861;46.170;7.222;2023-04-25T07:45:07;95483.50;;;15.56;49.16
13581;BME280;6861;46.170;7.222;2023-04-25T07:47:36;95493.00;;;15.57;49.27
13581;BME280;6861;46.170;7.222;2023-04-25T07:50:05;95500.38;;;15.38;49.00
13581;BME280;6861;46.170;7.222;2023-04-25T07:52:34;95503.19;;;15.02;49.65
13581;BME280;6861;46.170;7.222;2023-04-25T07:55:03;95501.19;;;14.46;50.32
13581;BME280;6861;46.170;7.222;2023-04-25T07:57:31;95517.09;;;14.04;51.45
13581;BME280;6861;46.170;7.222;2023-04-25T08:00:01;95521.50;;;13.59;52.19
13581;BME280;6861;46.170;7.222;2023-04-25T08:02:29;95524.88;;;12.91;53.35
13581;BME280;6861;46.170;7.222;2023-04-25T08:04:57;95516.44;;;12.29;54.92
13581;BME280;6861;46.170;7.222;2023-04-25T08:07:26;95518.19;;;11.82;55.97
13581;BME280;6861;46.170;7.222;2023-04-25T08:09:54;95524.34;;;11.49;56.48
13581;BME280;6861;46.170;7.222;2023-04-25T08:12:22;95525.47;;;11.43;56.97
13581;BME280;6861;46.170;7.222;2023-04-25T08:14:50;95526.97;;;11.49;57.14
13581;BME280;6861;46.170;7.222;2023-04-25T08:17:20;95535.69;;;11.63;56.13
13581;BME280;6861;46.170;7.222;2023-04-25T08:19:48;95525.56;;;11.80;56.10
13581;BME280;6861;46.170;7.222;2023-04-25T08:22:16;95532.41;;;12.14;55.60
13581;BME280;6861;46.170;7.222;2023-04-25T08:24:44;95541.50;;;12.54;54.89
13581;BME280;6861;46.170;7.222;2023-04-25T08:27:12;95553.34;;;12.84;54.17
13581;BME280;6861;46.170;7.222;2023-04-25T08:29:41;95557.66;;;13.07;54.85
13581;BME280;6861;46.170;7.222;2023-04-25T08:32:09;95567.84;;;13.28;54.31
13581;BME280;6861;46.170;7.222;2023-04-25T08:34:39;95560.63;;;13.33;54.16
13581;BME280;6861;46.170;7.222;2023-04-25T08:37:09;95574.97;;;13.08;53.94
13581;BME280;6861;46.170;7.222;2023-04-25T08:39:37;95578.47;;;12.90;54.13
13581;BME280;6861;46.170;7.222;2023-04-25T08:42:06;95575.81;;;12.76;55.26
13581;BME280;6861;46.170;7.222;2023-04-25T08:44:35;95580.50;;;12.61;55.33
13581;BME280;6861;46.170;7.222;2023-04-25T08:47:04;95582.78;;;12.48;55.57
13581;BME280;6861;46.170;7.222;2023-04-25T08:49:33;95579.25;;;12.39;54.44
13581;BME280;6861;46.170;7.222;2023-04-25T08:52:04;95593.72;;;12.56;54.88
13581;BME280;6861;46.170;7.222;2023-04-25T08:54:34;95594.63;;;12.97;53.85
13581;BME280;6861;46.170;7.222;2023-04-25T08:57:06;95602.47;;;13.30;52.80
13581;BME280;6861;46.170;7.222;2023-04-25T08:59:35;95604.84;;;13.45;53.02
13581;BME280;6861;46.170;7.222;2023-04-25T09:02:05;95597.94;;;13.49;53.27
13581;BME280;6861;46.170;7.222;2023-04-25T09:04:35;95595.31;;;13.63;52.15
13581;BME280;6861;46.170;7.222;2023-04-25T09:07:05;95596.16;;;13.86;51.80
13581;BME280;6861;46.170;7.222;2023-04-25T09:09:33;95604.00;;;14.13;51.60
13581;BME280;6861;46.170;7.222;2023-04-25T09:12:02;95602.63;;;15.50;49.54
13581;BME280;6861;46.170;7.222;2023-04-25T09:14:30;95603.16;;;16.43;47.37
13581;BME280;6861;46.170;7.222;2023-04-25T09:17:01;95600.06;;;18.78;43.75
13581;BME280;6861;46.170;7.222;2023-04-25T09:19:31;95598.47;;;22.77;38.27
13581;BME280;6861;46.170;7.222;2023-04-25T09:22:08;95613.59;;;26.55;33.46
13581;BME280;6861;46.170;7.222;2023-04-25T09:24:38;95613.94;;;29.31;30.27
13581;BME280;6861;46.170;7.222;2023-04-25T09:27:08;95613.53;;;28.38;28.40
13581;BME280;6861;46.170;7.222;2023-04-25T09:29:39;95614.41;;;25.60;28.61
13581;BME280;6861;46.170;7.222;2023-04-25T09:32:13;95621.00;;;22.41;32.03
13581;BME280;6861;46.170;7.222;2023-04-25T09:34:43;95610.44;;;19.98;35.44
13581;BME280;6861;46.170;7.222;2023-04-25T09:37:20;95617.09;;;18.48;38.81
13581;BME280;6861;46.170;7.222;2023-04-25T09:39:50;95623.38;;;17.46;40.48
13581;BME280;6861;46.170;7.222;2023-04-25T09:42:22;95627.88;;;16.73;41.14
13581;BME280;6861;46.170;7.222;2023-04-25T09:44:52;95630.25;;;15.92;42.49
13581;BME280;6861;46.170;7.222;2023-04-25T09:47:20;95626.13;;;15.60;43.90
13581;BME280;6861;46.170;7.222;2023-04-25T09:49:51;95621.97;;;15.76;44.37
13581;BME280;6861;46.170;7.222;2023-04-25T09:52:22;95624.69;;;16.11;43.83
13581;BME280;6861;46.170;7.222;2023-04-25T09:54:52;95617.91;;;16.61;43.48
13581;BME280;6861;46.170;7.222;2023-04-25T09:57:22;95611.69;;;17.94;42.23
13581;BME280;6861;46.170;7.222;2023-04-25T09:59:51;95601.06;;;22.54;35.73
13581;BME280;6861;46.170;7.222;2023-04-25T10:02:21;95597.94;;;25.58;31.86
13581;BME280;6861;46.170;7.222;2023-04-25T10:04:50;95589.63;;;27.05;29.93
13581;BME280;6861;46.170;7.222;2023-04-25T10:07:25;95590.44;;;28.37;27.88
13581;BME280;6861;46.170;7.222;2023-04-25T10:09:58;95593.53;;;27.29;28.15
13581;BME280;6861;46.170;7.222;2023-04-25T10:12:28;95585.28;;;26.03;29.00
13581;BME280;6861;46.170;7.222;2023-04-25T10:14:58;95586.84;;;26.07;29.35
13581;BME280;6861;46.170;7.222;2023-04-25T10:17:27;95585.72;;;26.85;29.35
13581;BME280;6861;46.170;7.222;2023-04-25T10:19:55;95576.66;;;27.99;27.88
13581;BME280;6861;46.170;7.222;2023-04-25T10:22:31;95572.63;;;28.68;25.71
13581;BME280;6861;46.170;7.222;2023-04-25T10:25:00;95570.19;;;29.02;24.97
13581;BME280;6861;46.170;7.222;2023-04-25T10:27:31;95564.16;;;29.94;24.65
13581;BME280;6861;46.170;7.222;2023-04-25T10:30:03;95567.75;;;30.90;23.09
13581;BME280;6861;46.170;7.222;2023-04-25T10:32:33;95565.13;;;31.67;22.88
13581;BME280;6861;46.170;7.222;2023-04-25T10:35:12;95562.16;;;31.58;22.45
13581;BME280;6861;46.170;7.222;2023-04-25T10:38:04;95561.28;;;31.14;22.39
13581;BME280;6861;46.170;7.222;2023-04-25T10:40:32;95558.28;;;30.07;23.50
13581;BME280;6861;46.170;7.222;2023-04-25T10:43:34;95543.31;;;28.91;24.00
13581;BME280;6861;46.170;7.222;2023-04-25T10:46:13;95540.53;;;28.07;25.08
13581;BME280;6861;46.170;7.222;2023-04-25T10:48:45;95542.84;;;27.27;25.00
13581;BME280;6861;46.170;7.222;2023-04-25T10:51:20;95549.53;;;26.50;25.00
13581;BME280;6861;46.170;7.222;2023-04-25T10:53:59;95544.16;;;25.81;25.18
13581;BME280;6861;46.170;7.222;2023-04-25T10:56:29;95538.47;;;24.98;24.84
13581;BME280;6861;46.170;7.222;2023-04-25T10:59:08;95533.44;;;23.99;24.64
13581;BME280;6861;46.170;7.222;2023-04-25T11:01:39;95541.59;;;23.34;24.93
13581;BME280;6861;46.170;7.222;2023-04-25T11:04:19;95548.13;;;22.75;25.53
13581;BME280;6861;46.170;7.222;2023-04-25T11:06:58;95558.53;;;22.61;26.28
13581;BME280;6861;46.170;7.222;2023-04-25T11:09:35;95562.50;;;22.48;26.63
13581;BME280;6861;46.170;7.222;2023-04-25T11:12:04;95568.09;;;22.43;26.72
13581;BME280;6861;46.170;7.222;2023-04-25T11:14:32;95564.00;;;22.30;27.15
13581;BME280;6861;46.170;7.222;2023-04-25T11:17:00;95575.91;;;22.16;27.00
13581;BME280;6861;46.170;7.222;2023-04-25T11:19:29;95576.19;;;21.80;27.44
13581;BME280;6861;46.170;7.222;2023-04-25T11:21:58;95573.50;;;21.45;27.53
13581;BME280;6861;46.170;7.222;2023-04-25T11:24:27;95590.66;;;21.04;28.29
13581;BME280;6861;46.170;7.222;2023-04-25T11:26:57;95583.44;;;20.60;28.71
13581;BME280;6861;46.170;7.222;2023-04-25T11:29:26;95583.81;;;20.35;29.44
13581;BME280;6861;46.170;7.222;2023-04-25T11:31:55;95584.50;;;20.19;29.65
13581;BME280;6861;46.170;7.222;2023-04-25T11:34:25;95582.28;;;20.21;29.66
13581;BME280;6861;46.170;7.222;2023-04-25T11:36:53;95575.97;;;20.38;30.16
13581;BME280;6861;46.170;7.222;2023-04-25T11:39:23;95588.22;;;20.55;30.20
13581;BME280;6861;46.170;7.222;2023-04-25T11:41:52;95584.06;;;20.70;29.61
13581;BME280;6861;46.170;7.222;2023-04-25T11:44:22;95585.66;;;20.86;29.71
13581;BME280;6861;46.170;7.222;2023-04-25T11:46:50;95590.47;;;20.97;29.82
13581;BME280;6861;46.170;7.222;2023-04-25T11:49:18;95591.63;;;20.83;31.04
13581;BME280;6861;46.170;7.222;2023-04-25T11:51:48;95595.31;;;20.51;31.87
13581;BME280;6861;46.170;7.222;2023-04-25T11:54:16;95593.47;;;20.27;32.54
13581;BME280;6861;46.170;7.222;2023-04-25T11:56:45;95593.78;;;20.25;32.33
13581;BME280;6861;46.170;7.222;2023-04-25T11:59:14;95602.66;;;20.29;32.13
13581;BME280;6861;46.170;7.222;2023-04-25T12:01:49;95615.06;;;20.25;31.88
13581;BME280;6861;46.170;7.222;2023-04-25T12:04:19;95606.06;;;20.30;31.72
13581;BME280;6861;46.170;7.222;2023-04-25T12:06:49;95620.69;;;20.24;31.55
13581;BME280;6861;46.170;7.222;2023-04-25T12:09:20;95614.97;;;20.10;31.15
13581;BME280;6861;46.170;7.222;2023-04-25T12:11:53;95623.84;;;19.89;31.70
13581;BME280;6861;46.170;7.222;2023-04-25T12:14:23;95631.03;;;19.77;31.69
13581;BME280;6861;46.170;7.222;2023-04-25T12:16:54;95622.41;;;19.80;32.27
13581;BME280;6861;46.170;7.222;2023-04-25T12:19:24;95611.00;;;19.91;31.88
13581;BME280;6861;46.170;7.222;2023-04-25T12:21:53;95623.94;;;20.05;32.17
13581;BME280;6861;46.170;7.222;2023-04-25T12:24:26;95628.78;;;20.03;32.45
13581;BME280;6861;46.170;7.222;2023-04-25T12:26:59;95625.47;;;19.94;32.76
13581;BME280;6861;46.170;7.222;2023-04-25T12:29:30;95623.63;;;19.82;33.26
13581;BME280;6861;46.170;7.222;2023-04-25T12:32:15;95621.28;;;19.56;33.39
13581;BME280;6861;46.170;7.222;2023-04-25T12:34:44;95615.34;;;19.39;33.92
13581;BME280;6861;46.170;7.222;2023-04-25T12:37:13;95626.47;;;19.20;33.28
13581;BME280;6861;46.170;7.222;2023-04-25T12:39:41;95626.66;;;19.15;33.77
13581;BME280;6861;46.170;7.222;2023-04-25T12:42:09;95637.47;;;19.10;32.97
13581;BME280;6861;46.170;7.222;2023-04-25T12:44:39;95627.97;;;19.09;32.87
13581;BME280;6861;46.170;7.222;2023-04-25T12:47:08;95630.53;;;19.05;32.84
13581;BME280;6861;46.170;7.222;2023-04-25T12:49:38;95630.44;;;19.14;33.00
13581;BME280;6861;46.170;7.222;2023-04-25T12:52:06;95626.66;;;19.15;33.44
13581;BME280;6861;46.170;7.222;2023-04-25T12:54:34;95626.22;;;19.01;33.61
13581;BME280;6861;46.170;7.222;2023-04-25T12:57:02;95623.75;;;18.95;33.57
13581;BME280;6861;46.170;7.222;2023-04-25T12:59:31;95626.16;;;18.88;34.12
13581;BME280;6861;46.170;7.222;2023-04-25T13:01:59;95624.34;;;18.80;34.45
13581;BME280;6861;46.170;7.222;2023-04-25T13:04:27;95622.09;;;18.70;33.91
13581;BME280;6861;46.170;7.222;2023-04-25T13:06:57;95614.84;;;18.58;33.75
13581;BME280;6861;46.170;7.222;2023-04-25T13:09:25;95626.59;;;18.49;33.94
13581;BME280;6861;46.170;7.222;2023-04-25T13:11:53;95618.66;;;18.49;33.44
13581;BME280;6861;46.170;7.222;2023-04-25T13:14:24;95619.09;;;18.51;33.34
13581;BME280;6861;46.170;7.222;2023-04-25T13:16:53;95612.06;;;18.55;33.15
13581;BME280;6861;46.170;7.222;2023-04-25T13:19:21;95612.06;;;18.55;33.00
13581;BME280;6861;46.170;7.222;2023-04-25T13:21:49;95605.66;;;18.56;33.31